createdAt,value
2017-10-31T00:01:32.866Z,84.04
2017-10-31T00:04:02.124Z,83.87
2017-10-31T00:06:32.108Z,83.82
2017-10-31T00:09:02.187Z,83.87
2017-10-31T00:11:31.408Z,83.45
2017-10-31T00:14:00.624Z,83.39
2017-10-31T00:16:29.849Z,83.41
2017-10-31T00:19:00.639Z,83.36
2017-10-31T00:21:29.867Z,83.37
2017-10-31T00:23:59.841Z,83.63
2017-10-31T00:26:29.234Z,83.38
2017-10-31T00:28:58.427Z,83.23
2017-10-31T00:31:27.759Z,83.44
2017-10-31T00:33:56.983Z,83.05
2017-10-31T00:36:26.968Z,82.92
2017-10-31T00:38:56.199Z,82.69
2017-10-31T00:41:26.167Z,82.74
2017-10-31T00:43:55.408Z,83.06
2017-10-31T00:46:25.380Z,82.88
2017-10-31T00:48:54.581Z,83.00
2017-10-31T00:51:23.803Z,83.09
2017-10-31T00:53:53.100Z,83.07
2017-10-31T00:56:22.292Z,82.97
2017-10-31T00:58:51.576Z,82.68
2017-10-31T01:01:21.093Z,82.75
2017-10-31T01:03:50.324Z,82.71
2017-10-31T01:06:20.302Z,82.67
2017-10-31T01:08:49.522Z,82.71
2017-10-31T01:11:18.768Z,82.97
2017-10-31T01:13:47.952Z,82.76
2017-10-31T01:16:17.291Z,82.45
2017-10-31T01:18:46.580Z,82.54
2017-10-31T01:21:15.789Z,82.22
2017-10-31T01:23:45.013Z,82.43
2017-10-31T01:26:14.311Z,82.22
2017-10-31T01:28:43.515Z,82.20
2017-10-31T01:31:13.516Z,81.92
2017-10-31T01:33:42.723Z,81.41
2017-10-31T01:36:13.444Z,81.62
2017-10-31T01:38:42.648Z,81.69
2017-10-31T01:41:12.154Z,81.80
2017-10-31T01:43:41.533Z,81.86
2017-10-31T01:46:10.749Z,81.66
2017-10-31T01:48:40.696Z,81.53
2017-10-31T01:51:09.915Z,81.62
2017-10-31T01:53:39.191Z,81.69
2017-10-31T01:56:08.399Z,81.48
2017-10-31T01:58:37.604Z,81.70
2017-10-31T02:01:06.832Z,81.68
2017-10-31T02:03:36.030Z,81.64
2017-10-31T02:06:05.328Z,81.46
2017-10-31T02:08:34.539Z,81.88
2017-10-31T02:11:05.291Z,82.20
2017-10-31T02:13:35.283Z,82.10
2017-10-31T02:16:05.978Z,81.75
2017-10-31T02:18:35.191Z,82.37
2017-10-31T02:21:04.377Z,82.72
2017-10-31T02:23:33.572Z,82.80
2017-10-31T02:26:03.136Z,82.79
2017-10-31T02:28:33.116Z,83.06
2017-10-31T02:31:02.303Z,82.96
2017-10-31T02:33:31.515Z,82.21
2017-10-31T02:36:00.711Z,82.49
2017-10-31T02:38:47.552Z,82.61
2017-10-31T02:41:17.514Z,82.50
2017-10-31T02:43:46.906Z,82.18
2017-10-31T02:46:16.207Z,82.19
2017-10-31T02:48:45.562Z,82.24
2017-10-31T02:51:14.740Z,82.00
2017-10-31T02:53:43.952Z,81.76
2017-10-31T02:56:13.299Z,81.95
2017-10-31T02:58:42.487Z,82.07
2017-10-31T03:01:11.738Z,81.96
2017-10-31T03:03:40.927Z,82.09
2017-10-31T03:06:10.148Z,82.21
2017-10-31T03:08:40.111Z,82.50
2017-10-31T03:11:09.307Z,82.61
2017-10-31T03:13:38.586Z,82.95
2017-10-31T03:16:07.924Z,83.27
2017-10-31T03:18:37.239Z,83.33
2017-10-31T03:21:06.443Z,83.23
2017-10-31T03:23:35.659Z,83.24
2017-10-31T03:26:05.627Z,83.13
2017-10-31T03:28:34.847Z,83.04
2017-10-31T03:31:04.063Z,83.11
2017-10-31T03:33:33.309Z,83.48
2017-10-31T03:36:02.497Z,83.65
2017-10-31T03:38:31.927Z,83.78
2017-10-31T03:41:01.176Z,84.17
2017-10-31T03:43:30.399Z,84.30
2017-10-31T03:45:59.608Z,84.45
2017-10-31T03:48:28.815Z,84.64
2017-10-31T03:50:58.047Z,84.79
2017-10-31T03:53:27.251Z,84.73
2017-10-31T03:55:57.228Z,84.88
2017-10-31T03:58:26.543Z,84.99
2017-10-31T04:00:55.726Z,84.98
2017-10-31T04:03:25.131Z,84.83
2017-10-31T04:05:54.351Z,84.70
2017-10-31T04:08:25.083Z,84.65
2017-10-31T04:10:54.267Z,84.30
2017-10-31T04:13:23.488Z,84.27
2017-10-31T04:15:52.687Z,84.22
2017-10-31T04:18:21.888Z,84.31
2017-10-31T04:20:51.892Z,84.44
2017-10-31T04:23:22.670Z,84.69
2017-10-31T04:25:51.904Z,84.58
2017-10-31T04:28:21.207Z,84.35
2017-10-31T04:30:50.432Z,84.28
2017-10-31T04:33:20.403Z,84.04
2017-10-31T04:35:49.722Z,83.95
2017-10-31T04:38:18.912Z,83.63
2017-10-31T04:40:48.216Z,83.79
2017-10-31T04:43:17.448Z,83.52
2017-10-31T04:45:47.426Z,83.59
2017-10-31T04:48:16.670Z,83.42
2017-10-31T04:50:46.610Z,83.05
2017-10-31T04:53:15.844Z,83.22
2017-10-31T04:55:45.115Z,83.34
2017-10-31T04:58:14.287Z,83.33
2017-10-31T05:00:43.486Z,83.42
2017-10-31T05:03:12.724Z,83.57
2017-10-31T05:05:41.918Z,83.09
2017-10-31T05:08:11.216Z,83.50
2017-10-31T05:10:40.426Z,83.47
2017-10-31T05:13:09.655Z,83.62
2017-10-31T05:15:39.606Z,83.30
2017-10-31T05:18:08.816Z,83.11
2017-10-31T05:20:38.031Z,83.16
2017-10-31T05:23:07.299Z,83.10
2017-10-31T05:25:36.757Z,83.03
2017-10-31T05:28:05.975Z,83.45
2017-10-31T05:30:35.947Z,83.12
2017-10-31T05:33:05.191Z,83.07
2017-10-31T05:35:35.139Z,82.74
2017-10-31T05:38:04.352Z,83.09
2017-10-31T05:40:33.565Z,82.99
2017-10-31T05:43:02.828Z,82.89
2017-10-31T05:45:32.052Z,82.40
2017-10-31T05:48:01.258Z,82.30
2017-10-31T05:50:30.490Z,82.30
2017-10-31T05:53:00.471Z,82.34
2017-10-31T05:55:29.686Z,82.17
2017-10-31T05:57:59.659Z,82.19
2017-10-31T06:00:29.663Z,82.10
2017-10-31T06:02:58.850Z,82.31
2017-10-31T06:05:28.087Z,82.19
2017-10-31T06:07:57.298Z,82.42
2017-10-31T06:10:26.812Z,82.34
2017-10-31T06:12:56.056Z,82.40
2017-10-31T06:15:25.432Z,82.43
2017-10-31T06:17:54.664Z,82.15
2017-10-31T06:20:23.869Z,82.28
2017-10-31T06:36:20.622Z,82.17
2017-10-31T06:38:49.871Z,82.48
2017-10-31T06:41:19.098Z,82.30
2017-10-31T06:43:48.287Z,82.57
2017-10-31T06:46:17.602Z,82.52
2017-10-31T06:48:46.959Z,82.73
2017-10-31T06:51:16.920Z,81.93
2017-10-31T06:53:46.156Z,82.15
2017-10-31T06:56:16.108Z,82.18
2017-10-31T06:58:45.328Z,81.98
2017-10-31T07:01:16.071Z,82.12
2017-10-31T07:03:45.326Z,81.95
2017-10-31T07:06:15.325Z,81.86
2017-10-31T07:08:45.348Z,82.05
2017-10-31T07:11:14.567Z,81.92
2017-10-31T07:13:43.825Z,82.11
2017-10-31T07:16:13.116Z,82.16
2017-10-31T07:18:43.152Z,82.22
2017-10-31T07:21:12.386Z,81.93
2017-10-31T07:23:41.651Z,81.73
2017-10-31T07:26:11.633Z,82.08
2017-10-31T07:28:42.391Z,81.73
2017-10-31T07:31:12.352Z,81.92
2017-10-31T07:33:41.582Z,81.82
2017-10-31T07:36:10.806Z,81.82
2017-10-31T07:38:40.043Z,81.64
2017-10-31T07:41:09.247Z,81.64
2017-10-31T07:43:38.474Z,81.53
2017-10-31T07:46:07.669Z,81.62
2017-10-31T07:48:36.895Z,81.48
2017-10-31T07:51:06.111Z,81.84
2017-10-31T07:53:35.422Z,81.99
2017-10-31T07:56:04.619Z,81.47
2017-10-31T07:58:33.877Z,81.72
2017-10-31T08:01:03.182Z,81.67
2017-10-31T08:03:32.430Z,81.48
2017-10-31T08:06:01.677Z,81.66
2017-10-31T08:08:30.899Z,81.60
2017-10-31T08:11:00.211Z,81.27
2017-10-31T08:13:29.408Z,80.85
2017-10-31T08:15:58.618Z,80.72
2017-10-31T08:18:27.852Z,80.32
2017-10-31T08:20:57.090Z,80.08
2017-10-31T08:23:26.298Z,80.12
2017-10-31T08:25:55.588Z,79.70
2017-10-31T08:28:24.770Z,79.32
2017-10-31T08:30:54.016Z,79.06
2017-10-31T08:33:23.220Z,78.87
2017-10-31T08:35:52.462Z,78.53
2017-10-31T08:38:21.751Z,78.83
2017-10-31T08:40:51.015Z,78.87
2017-10-31T08:43:20.383Z,79.03
2017-10-31T08:45:49.709Z,78.79
2017-10-31T08:48:20.785Z,78.14
2017-10-31T08:50:50.835Z,78.01
2017-10-31T08:53:20.163Z,78.26
2017-10-31T08:55:49.579Z,78.09
2017-10-31T08:58:19.100Z,79.16
2017-10-31T09:00:49.571Z,78.57
2017-10-31T09:03:21.002Z,78.26
2017-10-31T09:05:51.043Z,78.22
2017-10-31T09:08:20.284Z,78.31
2017-10-31T09:10:50.328Z,78.04
2017-10-31T09:13:19.939Z,77.64
2017-10-31T09:15:49.168Z,77.97
2017-10-31T09:18:18.455Z,77.47
2017-10-31T09:20:47.810Z,76.92
2017-10-31T09:23:17.051Z,76.93
2017-10-31T09:25:47.122Z,77.03
2017-10-31T09:28:16.955Z,77.36
2017-10-31T09:30:46.945Z,76.92
2017-10-31T09:33:16.182Z,77.35
2017-10-31T09:35:45.573Z,76.97
2017-10-31T09:38:14.805Z,77.16
2017-10-31T09:40:44.123Z,77.07
2017-10-31T09:43:13.496Z,76.96
2017-10-31T09:45:42.738Z,76.25
2017-10-31T09:48:13.443Z,76.32
2017-10-31T09:50:42.741Z,75.87
2017-10-31T09:53:11.987Z,76.29
2017-10-31T09:55:41.219Z,76.36
2017-10-31T09:58:10.456Z,76.57
2017-10-31T10:00:39.704Z,76.44
2017-10-31T10:03:08.934Z,76.58
2017-10-31T10:05:38.223Z,76.61
2017-10-31T10:08:07.769Z,76.57
2017-10-31T10:10:37.060Z,76.21
2017-10-31T10:13:06.272Z,76.22
2017-10-31T10:15:35.516Z,76.31
2017-10-31T10:18:05.152Z,75.84
2017-10-31T10:20:34.403Z,75.81
2017-10-31T10:23:03.635Z,76.21
2017-10-31T10:25:32.850Z,76.20
2017-10-31T10:28:03.597Z,75.99
2017-10-31T10:30:36.614Z,76.16
2017-10-31T10:33:05.908Z,76.22
2017-10-31T10:35:35.136Z,75.43
2017-10-31T10:38:04.367Z,75.52
2017-10-31T10:40:33.604Z,75.39
2017-10-31T10:43:02.852Z,74.51
2017-10-31T10:45:32.159Z,75.46
2017-10-31T10:48:01.409Z,75.02
2017-10-31T10:50:30.632Z,75.29
2017-10-31T10:52:59.840Z,75.51
2017-10-31T10:55:29.092Z,74.86
2017-10-31T10:57:59.104Z,74.99
2017-10-31T11:00:48.736Z,75.26
2017-10-31T11:03:22.627Z,74.57
2017-10-31T11:05:51.882Z,73.96
2017-10-31T11:08:21.892Z,73.91
2017-10-31T11:10:51.176Z,74.40
2017-10-31T11:13:20.413Z,74.40
2017-10-31T11:15:49.913Z,74.41
2017-10-31T11:18:19.915Z,72.18
2017-10-31T11:20:49.826Z,72.80
2017-10-31T11:23:19.819Z,73.50
2017-10-31T11:25:50.597Z,71.66
2017-10-31T11:28:20.591Z,72.81
2017-10-31T11:30:50.779Z,72.42
2017-10-31T11:33:20.811Z,72.49
2017-10-31T11:35:50.148Z,71.87
2017-10-31T11:38:19.600Z,72.82
2017-10-31T11:40:49.083Z,72.00
2017-10-31T11:43:18.289Z,71.81
2017-10-31T11:45:47.534Z,70.84
2017-10-31T11:48:18.226Z,71.21
2017-10-31T11:50:47.644Z,70.72
2017-10-31T11:53:16.852Z,70.99
2017-10-31T11:55:46.068Z,71.84
2017-10-31T11:58:16.099Z,70.93
2017-10-31T12:00:45.327Z,70.95
2017-10-31T12:03:14.561Z,71.27
2017-10-31T12:05:43.781Z,70.90
2017-10-31T12:08:13.779Z,70.50
2017-10-31T12:10:44.107Z,70.88
2017-10-31T12:13:13.492Z,71.22
2017-10-31T12:15:42.710Z,71.53
2017-10-31T12:18:12.720Z,71.42
2017-10-31T12:20:42.720Z,71.49
2017-10-31T12:23:11.959Z,71.53
2017-10-31T12:25:41.194Z,71.89
2017-10-31T12:28:10.438Z,72.18
2017-10-31T12:30:40.425Z,72.08
2017-10-31T12:33:09.677Z,71.96
2017-10-31T12:35:38.900Z,71.61
2017-10-31T12:38:08.111Z,71.74
2017-10-31T12:40:37.364Z,71.54
2017-10-31T12:43:06.688Z,71.88
2017-10-31T12:45:35.956Z,72.18
2017-10-31T12:48:05.964Z,71.51
2017-10-31T12:50:35.956Z,72.60
2017-10-31T12:55:41.442Z,72.14
2017-10-31T12:58:11.416Z,72.45
2017-10-31T13:00:40.652Z,72.73
2017-10-31T13:03:10.755Z,71.70
2017-10-31T13:05:40.770Z,72.44
2017-10-31T13:08:09.997Z,72.37
2017-10-31T13:10:39.984Z,72.42
2017-10-31T13:13:09.316Z,73.29
2017-10-31T13:15:38.548Z,72.66
2017-10-31T13:18:07.806Z,72.96
2017-10-31T13:20:37.783Z,71.75
2017-10-31T13:23:07.848Z,72.10
2017-10-31T13:25:37.081Z,71.77
2017-10-31T13:28:07.204Z,71.71
2017-10-31T13:30:37.451Z,71.16
2017-10-31T13:33:07.732Z,71.49
2017-10-31T13:35:37.974Z,71.37
2017-10-31T13:38:10.089Z,71.98
2017-10-31T13:40:40.406Z,71.67
2017-10-31T13:43:10.777Z,71.64
2017-10-31T13:45:40.074Z,72.22
2017-10-31T13:48:10.046Z,72.03
2017-10-31T13:50:40.973Z,72.54
2017-10-31T13:53:10.963Z,72.40
2017-10-31T13:55:40.205Z,72.20
2017-10-31T13:58:10.193Z,72.33
2017-10-31T14:00:40.176Z,72.57
2017-10-31T14:03:10.322Z,72.65
2017-10-31T14:05:40.495Z,71.92
2017-10-31T14:08:10.617Z,72.04
2017-10-31T14:10:40.048Z,71.37
2017-10-31T14:13:09.314Z,70.40
2017-10-31T14:15:38.787Z,71.46
2017-10-31T14:18:11.390Z,71.07
2017-10-31T14:20:40.687Z,70.71
2017-10-31T14:23:09.968Z,70.96
2017-10-31T14:25:39.310Z,71.09
2017-10-31T14:28:08.695Z,71.31
2017-10-31T14:30:37.953Z,71.84
2017-10-31T14:33:07.964Z,71.66
2017-10-31T14:35:37.164Z,72.48
2017-10-31T14:38:06.487Z,72.02
2017-10-31T14:40:35.726Z,72.24
2017-10-31T14:43:05.311Z,72.65
2017-10-31T14:45:34.531Z,72.22
2017-10-31T14:48:03.836Z,72.09
2017-10-31T14:50:33.109Z,71.92
2017-10-31T14:53:02.369Z,72.59
2017-10-31T14:55:31.720Z,72.21
2017-10-31T14:58:00.967Z,72.59
2017-10-31T15:00:31.004Z,72.56
2017-10-31T15:03:00.244Z,73.09
2017-10-31T15:05:29.619Z,73.82
2017-10-31T15:07:58.879Z,74.43
2017-10-31T15:10:28.903Z,74.23
2017-10-31T15:12:58.895Z,74.81
2017-10-31T15:15:28.116Z,75.17
2017-10-31T15:17:58.142Z,75.52
2017-10-31T15:20:28.108Z,74.58
2017-10-31T15:22:57.371Z,75.50
2017-10-31T15:25:26.619Z,75.77
2017-10-31T15:27:57.575Z,75.25
2017-10-31T15:30:27.587Z,75.99
2017-10-31T15:32:57.615Z,76.60
2017-10-31T15:35:27.612Z,76.21
2017-10-31T15:37:57.009Z,77.75
2017-10-31T15:40:26.295Z,76.62
2017-10-31T15:42:55.568Z,77.26
2017-10-31T15:45:24.916Z,77.22
2017-10-31T15:47:54.164Z,77.88
2017-10-31T15:50:23.423Z,78.26
2017-10-31T15:52:53.420Z,78.14
2017-10-31T15:55:22.733Z,77.78
2017-10-31T15:57:52.755Z,78.00
2017-10-31T16:00:22.146Z,77.45
2017-10-31T16:02:51.772Z,78.00
2017-10-31T16:05:21.053Z,78.23
2017-10-31T16:07:50.309Z,78.20
2017-10-31T16:10:19.609Z,77.95
2017-10-31T16:12:48.952Z,77.54
2017-10-31T16:15:18.977Z,77.84
2017-10-31T16:17:49.039Z,77.49
2017-10-31T16:20:18.267Z,77.52
2017-10-31T16:22:49.008Z,77.04
2017-10-31T16:25:18.268Z,77.83
2017-10-31T16:27:47.517Z,77.28
2017-10-31T16:30:16.791Z,77.33
2017-10-31T16:32:46.060Z,76.99
2017-10-31T16:35:15.368Z,76.72
2017-10-31T16:37:44.574Z,77.09
2017-10-31T16:40:13.818Z,76.75
2017-10-31T16:42:43.828Z,76.44
2017-10-31T16:45:13.108Z,76.82
2017-10-31T16:47:42.404Z,76.37
2017-10-31T16:50:13.163Z,76.69
2017-10-31T16:52:43.592Z,76.12
2017-10-31T16:55:13.777Z,76.35
2017-10-31T16:57:43.017Z,75.76
2017-10-31T17:00:13.097Z,76.84
2017-10-31T17:02:42.369Z,76.59
2017-10-31T17:05:11.613Z,77.19
2017-10-31T17:07:41.831Z,76.75
2017-10-31T17:10:11.065Z,77.50
2017-10-31T17:12:40.315Z,77.23
2017-10-31T17:15:10.334Z,77.23
2017-10-31T17:17:39.667Z,76.72
2017-10-31T17:20:09.671Z,77.13
2017-10-31T17:22:39.688Z,77.00
2017-10-31T17:25:09.702Z,77.58
2017-10-31T17:27:39.719Z,77.17
2017-10-31T17:30:09.760Z,77.05
2017-10-31T17:32:39.776Z,77.07
2017-10-31T17:35:09.113Z,77.20
2017-10-31T17:37:38.434Z,77.57
2017-10-31T17:40:08.466Z,77.71
2017-10-31T17:42:38.461Z,78.23
2017-10-31T17:45:07.900Z,78.38
2017-10-31T17:47:37.154Z,78.57
2017-10-31T17:50:09.347Z,78.70
2017-10-31T17:52:38.619Z,78.85
2017-10-31T17:55:07.905Z,78.69
2017-10-31T17:57:37.157Z,78.72
2017-10-31T18:00:07.164Z,78.31
2017-10-31T18:02:37.290Z,78.18
2017-10-31T18:05:08.218Z,78.63
2017-10-31T18:07:37.757Z,78.73
2017-10-31T18:10:07.006Z,79.20
2017-10-31T18:12:38.070Z,78.86
2017-10-31T18:15:08.083Z,78.52
2017-10-31T18:17:37.584Z,77.49
2017-10-31T18:20:07.601Z,77.77
2017-10-31T18:22:37.740Z,77.97
2017-10-31T18:25:07.053Z,77.29
2017-10-31T18:27:36.274Z,76.85
2017-10-31T18:30:05.559Z,77.02
2017-10-31T18:32:34.838Z,76.87
2017-10-31T18:35:04.895Z,76.55
2017-10-31T18:37:34.144Z,75.88
2017-10-31T18:40:04.188Z,75.63
2017-10-31T18:42:33.427Z,75.81
2017-10-31T18:45:04.220Z,75.35
2017-10-31T18:47:33.554Z,75.85
2017-10-31T18:50:02.791Z,75.06
2017-10-31T18:52:32.040Z,75.71
2017-10-31T18:55:01.342Z,75.52
2017-10-31T18:57:30.652Z,75.67
2017-10-31T19:00:01.424Z,75.12
2017-10-31T19:02:31.443Z,75.26
2017-10-31T19:05:00.704Z,74.83
2017-10-31T19:07:31.518Z,75.05
2017-10-31T19:10:00.752Z,75.14
2017-10-31T19:12:30.823Z,74.79
2017-10-31T19:15:00.085Z,75.12
2017-10-31T19:17:30.104Z,75.12
2017-10-31T19:19:59.335Z,74.97
2017-10-31T19:22:28.632Z,74.82
2017-10-31T19:24:57.932Z,74.98
2017-10-31T19:27:27.236Z,75.36
2017-10-31T19:29:56.510Z,74.66
2017-10-31T19:32:25.831Z,74.87
2017-10-31T19:34:55.062Z,74.46
2017-10-31T19:37:24.331Z,74.63
2017-10-31T19:39:53.613Z,74.67
2017-10-31T19:42:22.884Z,74.14
2017-10-31T19:44:52.954Z,73.96
2017-10-31T19:47:22.211Z,74.11
2017-10-31T19:49:51.538Z,74.19
2017-10-31T19:52:20.785Z,73.99
2017-10-31T19:54:50.935Z,73.58
2017-10-31T19:57:20.205Z,74.12
2017-10-31T19:59:49.456Z,73.54
2017-10-31T20:02:18.678Z,73.93
2017-10-31T20:04:47.902Z,74.12
2017-10-31T20:07:17.138Z,73.75
2017-10-31T20:09:46.349Z,73.60
2017-10-31T20:12:15.619Z,74.03
2017-10-31T20:14:44.842Z,73.54
2017-10-31T20:17:14.073Z,73.63
2017-10-31T20:19:43.288Z,73.55
2017-10-31T20:22:12.536Z,73.47
2017-10-31T20:24:41.775Z,73.30
2017-10-31T20:27:11.031Z,73.18
2017-10-31T20:29:40.280Z,73.24
2017-10-31T20:32:09.515Z,73.88
2017-10-31T20:34:38.765Z,74.75
2017-10-31T20:37:07.973Z,75.57
2017-10-31T20:39:37.243Z,75.70
2017-10-31T20:42:06.488Z,75.52
2017-10-31T20:44:36.795Z,75.91
2017-10-31T20:47:06.841Z,75.95
2017-10-31T20:49:36.089Z,75.79
2017-10-31T20:52:05.477Z,76.19
2017-10-31T20:54:34.716Z,75.96
2017-10-31T20:57:04.718Z,75.73
2017-10-31T20:59:35.481Z,75.50
2017-10-31T21:02:04.701Z,75.77
2017-10-31T21:04:33.961Z,75.77
2017-10-31T21:07:03.343Z,76.16
2017-10-31T21:09:32.580Z,77.75
2017-10-31T21:12:01.832Z,77.55
2017-10-31T21:14:31.152Z,79.01
2017-10-31T21:17:01.147Z,79.24
2017-10-31T21:19:30.372Z,80.27
2017-10-31T21:21:59.596Z,80.96
2017-10-31T21:24:28.818Z,82.00
2017-10-31T21:26:58.053Z,82.78
2017-10-31T21:29:27.294Z,83.29
2017-10-31T21:31:56.535Z,83.24
2017-10-31T21:34:25.766Z,84.02
2017-10-31T21:36:55.778Z,84.26
2017-10-31T21:39:25.790Z,83.94
2017-10-31T21:41:55.916Z,84.91
2017-10-31T21:44:26.082Z,84.74
2017-10-31T21:46:55.331Z,85.06
2017-10-31T21:49:25.496Z,85.91
2017-10-31T21:51:54.734Z,86.09
2017-10-31T21:54:23.976Z,86.45
2017-10-31T21:56:53.235Z,86.67
2017-10-31T21:59:23.263Z,87.03
2017-10-31T22:01:53.251Z,87.61
2017-10-31T22:04:22.498Z,87.58
2017-10-31T22:06:51.931Z,87.91
2017-10-31T22:09:21.172Z,88.07
2017-10-31T22:11:51.173Z,88.51
2017-10-31T22:14:20.436Z,88.69
2017-10-31T22:16:49.643Z,88.93
2017-10-31T22:19:18.877Z,88.73
2017-10-31T22:21:48.127Z,88.82
2017-10-31T22:24:17.458Z,88.94
2017-10-31T22:26:46.708Z,88.86
2017-10-31T22:29:15.944Z,88.66
2017-10-31T22:31:45.175Z,88.99
2017-10-31T22:34:15.352Z,89.23
2017-10-31T22:36:44.634Z,88.88
2017-10-31T22:39:13.865Z,88.89
2017-10-31T22:41:43.257Z,88.75
2017-10-31T22:44:12.472Z,88.68
2017-10-31T22:46:42.552Z,88.84
2017-10-31T22:49:11.783Z,88.38
2017-10-31T22:51:42.530Z,88.56
2017-10-31T22:54:12.026Z,88.64
2017-10-31T22:56:41.306Z,88.97
2017-10-31T22:59:10.620Z,88.67
2017-10-31T23:01:39.854Z,89.01
2017-10-31T23:04:09.128Z,88.84
2017-10-31T23:06:38.335Z,88.69
2017-10-31T23:09:08.342Z,88.66
2017-10-31T23:11:38.359Z,88.79
2017-10-31T23:14:07.697Z,89.04
2017-10-31T23:16:36.924Z,88.44
2017-10-31T23:19:06.150Z,88.67
2017-10-31T23:21:36.154Z,88.87
2017-10-31T23:24:05.535Z,88.73
2017-10-31T23:26:34.754Z,88.75
2017-10-31T23:29:05.500Z,88.59
2017-10-31T23:31:35.496Z,88.42
2017-10-31T23:34:04.727Z,88.21
2017-10-31T23:36:34.727Z,88.29
2017-10-31T23:39:03.936Z,88.42
2017-10-31T23:41:33.254Z,88.46
2017-10-31T23:44:03.235Z,88.51
2017-10-31T23:46:33.960Z,88.40
2017-10-31T23:49:03.169Z,88.25
2017-10-31T23:51:32.387Z,87.92
2017-10-31T23:54:02.409Z,87.64
2017-10-31T23:56:32.404Z,88.02
2017-10-31T23:59:02.423Z,87.57
